Time;durP1;ratioP1;P1;durP2;ratioP2;P2;SDS_P1;SDS_P2;PMS_P1;PMS_P2;Temp;Humidity;BMP_temperature;BMP_pressure;BME280_temperature;BME280_humidity;BME280_pressure;Samples;Min_cycle;Max_cycle;Signal;HPM_P1;HPM_P2
2020/03/26 00:01:35;;;;;;;13.2;9.1;;;;;;;3.26;46.94531;1004.834;;;;
2020/03/26 00:03:53;;;;;;;13.1;8.9;;;;;;;3.29;46.88086;1004.79;;;;
2020/03/26 00:06:17;;;;;;;13.8;9.2;;;;;;;3.26;46.84375;1004.77;;;;
2020/03/26 00:08:43;;;;;;;12;8.9;;;;;;;3.24;46.93066;1004.738;;;;
2020/03/26 00:11:08;;;;;;;13.9;9.3;;;;;;;3.25;46.77637;1004.709;;;;
2020/03/26 00:13:33;;;;;;;12.7;8.9;;;;;;;3.24;46.9082;1004.716;;;;
2020/03/26 00:15:58;;;;;;;13.5;9.1;;;;;;;3.23;46.89746;1004.702;;;;
2020/03/26 00:18:23;;;;;;;13.1;8.9;;;;;;;3.23;46.80762;1004.616;;;;
2020/03/26 00:20:48;;;;;;;12.3;8.5;;;;;;;3.19;47.0498;1004.625;;;;
2020/03/26 00:23:13;;;;;;;14.1;8.9;;;;;;;3.16;47.06934;1004.624;;;;
2020/03/26 00:25:38;;;;;;;12.3;9;;;;;;;3.17;47.22656;1004.612;;;;
2020/03/26 00:30:29;;;;;;;13.6;8.9;;;;;;;3.08;47.47656;1004.532;;;;
2020/03/26 00:32:54;;;;;;;12.8;8.7;;;;;;;3.08;47.54395;1004.511;;;;
2020/03/26 00:35:22;;;;;;;12.7;9.1;;;;;;;3.01;47.81738;1004.577;;;;
2020/03/26 00:37:45;;;;;;;13.3;9;;;;;;;3;47.87207;1004.535;;;;
2020/03/26 00:40:10;;;;;;;12.4;8.9;;;;;;;2.97;48.02734;1004.58;;;;
2020/03/26 00:42:35;;;;;;;12.9;8.6;;;;;;;2.97;47.91406;1004.603;;;;
2020/03/26 00:45:00;;;;;;;11.7;8.5;;;;;;;2.95;48.09277;1004.519;;;;
2020/03/26 00:47:25;;;;;;;11.8;8.8;;;;;;;2.98;47.95996;1004.496;;;;
2020/03/26 00:49:50;;;;;;;14.6;9.5;;;;;;;2.91;48.27734;1004.501;;;;
2020/03/26 00:52:16;;;;;;;11.8;8.7;;;;;;;2.84;48.4502;1004.493;;;;
2020/03/26 00:54:40;;;;;;;12.8;9;;;;;;;2.86;48.65527;1004.474;;;;
2020/03/26 00:57:05;;;;;;;13.2;9.2;;;;;;;2.81;48.72754;1004.464;;;;
2020/03/26 00:59:31;;;;;;;12;8.6;;;;;;;2.76;48.91309;1004.42;;;;
2020/03/26 01:01:56;;;;;;;12.5;8.7;;;;;;;2.75;49.10352;1004.428;;;;
2020/03/26 01:04:21;;;;;;;11.8;8.6;;;;;;;2.78;48.9375;1004.426;;;;
2020/03/26 01:06:46;;;;;;;12.7;8.6;;;;;;;2.76;48.95898;1004.416;;;;
2020/03/26 01:09:11;;;;;;;12.2;8.5;;;;;;;2.74;49.21582;1004.332;;;;
2020/03/26 01:11:36;;;;;;;12.6;8.9;;;;;;;2.77;49.17383;1004.371;;;;
2020/03/26 01:14:01;;;;;;;11.2;8.3;;;;;;;2.73;49.33691;1004.339;;;;
2020/03/26 01:16:26;;;;;;;12.4;8.3;;;;;;;2.71;49.41406;1004.324;;;;
2020/03/26 01:18:52;;;;;;;11.9;8.1;;;;;;;2.68;49.52148;1004.302;;;;
2020/03/26 01:21:17;;;;;;;11.6;8.4;;;;;;;2.61;49.64941;1004.264;;;;
2020/03/26 01:23:43;;;;;;;11.9;8.4;;;;;;;2.62;49.69531;1004.285;;;;
2020/03/26 01:26:08;;;;;;;11.2;8.4;;;;;;;2.59;49.83789;1004.367;;;;
2020/03/26 01:28:33;;;;;;;12.5;8.4;;;;;;;2.52;50.12207;1004.37;;;;
2020/03/26 01:30:58;;;;;;;11.9;8.4;;;;;;;2.47;50.28418;1004.344;;;;
2020/03/26 01:33:23;;;;;;;12.4;9;;;;;;;2.48;50.46582;1004.318;;;;
2020/03/26 01:35:49;;;;;;;11.6;8.2;;;;;;;2.4;50.60156;1004.309;;;;
2020/03/26 01:38:14;;;;;;;11.7;8;;;;;;;2.49;50.23145;1004.225;;;;
2020/03/26 01:40:39;;;;;;;11.1;8.4;;;;;;;2.45;50.36035;1004.205;;;;
2020/03/26 01:43:04;;;;;;;10.8;8;;;;;;;2.46;50.46387;1004.244;;;;
2020/03/26 01:45:29;;;;;;;12.2;8.3;;;;;;;2.46;50.27246;1004.098;;;;
2020/03/26 01:47:54;;;;;;;11.9;8.5;;;;;;;2.43;50.56055;1004.145;;;;
2020/03/26 01:50:19;;;;;;;10;7.8;;;;;;;2.41;50.66016;1004.152;;;;
2020/03/26 01:52:44;;;;;;;11;8.1;;;;;;;2.4;50.625;1004.173;;;;
2020/03/26 01:55:09;;;;;;;10.8;8.1;;;;;;;2.43;50.57227;1004.157;;;;
2020/03/26 01:57:35;;;;;;;10.1;7.5;;;;;;;2.4;50.66895;1004.141;;;;
2020/03/26 01:59:59;;;;;;;11.1;7.9;;;;;;;2.34;50.85352;1004.207;;;;
2020/03/26 02:02:24;;;;;;;10.6;7.7;;;;;;;2.4;50.64648;1004.127;;;;
2020/03/26 02:04:50;;;;;;;11.5;7.8;;;;;;;2.38;50.76758;1004.141;;;;
2020/03/26 02:07:15;;;;;;;10.1;7.8;;;;;;;2.37;50.86816;1004.128;;;;
2020/03/26 02:09:40;;;;;;;11.2;7.4;;;;;;;2.31;51.0293;1004.127;;;;
2020/03/26 02:12:05;;;;;;;10.4;7.9;;;;;;;2.24;51.10938;1004.108;;;;
2020/03/26 02:14:31;;;;;;;10.4;7.8;;;;;;;2.23;51.1543;1004.116;;;;
2020/03/26 02:16:56;;;;;;;10.5;7.5;;;;;;;2.2;51.24023;1004.11;;;;
2020/03/26 02:19:21;;;;;;;11.1;7.6;;;;;;;2.21;51.24121;1004.135;;;;
2020/03/26 02:21:46;;;;;;;9.5;7.3;;;;;;;2.18;51.3291;1004.12;;;;
2020/03/26 02:24:11;;;;;;;12.5;8.1;;;;;;;2.15;51.3916;1004.113;;;;
2020/03/26 02:26:36;;;;;;;11.7;7.7;;;;;;;2.15;51.32324;1004.059;;;;
2020/03/26 02:31:32;;;;;;;11.4;8.3;;;;;;;2.14;51.23242;1004.057;;;;
2020/03/26 02:33:54;;;;;;;11.6;8.5;;;;;;;2.14;51.2002;1004.058;;;;
2020/03/26 02:36:18;;;;;;;12.3;8.4;;;;;;;2.07;51.55078;1004.052;;;;
2020/03/26 02:38:42;;;;;;;10.8;8.4;;;;;;;2.06;51.48242;1004.111;;;;
2020/03/26 02:41:07;;;;;;;12.2;8.3;;;;;;;2.1;51.14941;1004.167;;;;
2020/03/26 02:43:32;;;;;;;11.3;8;;;;;;;2.11;51.13965;1004.202;;;;
2020/03/26 02:45:57;;;;;;;10.9;8.1;;;;;;;2.08;51.16992;1004.174;;;;
2020/03/26 02:48:22;;;;;;;11.3;8;;;;;;;2.04;51.37891;1004.141;;;;
2020/03/26 02:50:47;;;;;;;12.2;8.4;;;;;;;2.1;51.12695;1004.125;;;;
2020/03/26 02:53:12;;;;;;;10.5;7.7;;;;;;;2.06;51.16699;1004.171;;;;
2020/03/26 02:55:38;;;;;;;12.4;8.1;;;;;;;2.04;51.1084;1004.181;;;;
2020/03/26 02:58:03;;;;;;;11;8;;;;;;;2.07;51.14551;1004.149;;;;
2020/03/26 03:00:28;;;;;;;12.3;8;;;;;;;2.02;51.03906;1004.124;;;;
2020/03/26 03:02:53;;;;;;;12;8.5;;;;;;;2;51.3291;1004.117;;;;
2020/03/26 03:05:24;;;;;;;9.9;7.9;;;;;;;1.98;51.29297;1004.118;;;;
2020/03/26 03:07:49;;;;;;;10.7;7.8;;;;;;;2.01;51.10547;1004.085;;;;
2020/03/26 03:10:14;;;;;;;10;7.3;;;;;;;2;51.20508;1004.022;;;;
2020/03/26 03:12:39;;;;;;;11.1;8;;;;;;;1.96;51.40137;1004.09;;;;
2020/03/26 03:15:04;;;;;;;10;7.8;;;;;;;1.91;51.5752;1004.05;;;;
2020/03/26 03:17:30;;;;;;;11.2;7.8;;;;;;;1.89;51.50586;1004.02;;;;
2020/03/26 03:19:55;;;;;;;9.7;7.8;;;;;;;1.93;51.53418;1004.089;;;;
2020/03/26 03:22:20;;;;;;;10.2;7.8;;;;;;;1.99;51.29395;1004.068;;;;
2020/03/26 03:24:45;;;;;;;10.7;7.8;;;;;;;1.98;51.28125;1004.05;;;;
2020/03/26 03:27:10;;;;;;;10.4;7.7;;;;;;;1.97;51.30273;1004.108;;;;
2020/03/26 03:29:35;;;;;;;11.7;8.1;;;;;;;1.93;51.37598;1004.052;;;;
2020/03/26 03:32:00;;;;;;;10.6;7.8;;;;;;;1.9;51.57422;1004.065;;;;
2020/03/26 03:34:25;;;;;;;11.2;7.7;;;;;;;1.85;51.66992;1004.033;;;;
2020/03/26 03:36:50;;;;;;;10.8;8.1;;;;;;;1.84;51.71289;1004.105;;;;
2020/03/26 03:39:15;;;;;;;11.2;8;;;;;;;1.83;51.76855;1004.135;;;;
2020/03/26 03:41:40;;;;;;;11.8;7.8;;;;;;;1.85;51.72559;1004.15;;;;
2020/03/26 03:44:05;;;;;;;10.5;7.5;;;;;;;1.88;51.60449;1004.154;;;;
2020/03/26 03:46:31;;;;;;;12.2;7.9;;;;;;;1.84;51.72461;1004.223;;;;
2020/03/26 03:48:56;;;;;;;10.9;8;;;;;;;1.81;51.99121;1004.265;;;;
2020/03/26 03:51:21;;;;;;;10.9;7.8;;;;;;;1.78;52.14258;1004.155;;;;
2020/03/26 03:53:46;;;;;;;10.4;7.8;;;;;;;1.77;52.14258;1004.204;;;;
2020/03/26 03:56:11;;;;;;;11.3;7.9;;;;;;;1.78;52.2207;1004.244;;;;
2020/03/26 03:58:36;;;;;;;9.6;7.7;;;;;;;1.72;52.4834;1004.227;;;;
2020/03/26 04:02:27;;;;;;;11;7.6;;;;;;;1.72;52.5166;1004.215;;;;
2020/03/26 04:04:52;;;;;;;9.6;7.6;;;;;;;1.69;52.68164;1004.188;;;;
2020/03/26 04:07:17;;;;;;;11.2;7.8;;;;;;;1.71;52.7168;1004.247;;;;
2020/03/26 04:09:43;;;;;;;10.9;7.7;;;;;;;1.64;52.92188;1004.238;;;;
2020/03/26 04:12:08;;;;;;;10.9;7.7;;;;;;;1.65;52.90137;1004.205;;;;
2020/03/26 04:14:33;;;;;;;10.2;7.9;;;;;;;1.67;52.85938;1004.212;;;;
2020/03/26 04:16:58;;;;;;;11.6;8;;;;;;;1.6;53.19629;1004.164;;;;
2020/03/26 04:19:23;;;;;;;10.7;7.5;;;;;;;1.59;53.19531;1004.189;;;;
2020/03/26 04:21:48;;;;;;;10.9;7.4;;;;;;;1.55;53.33691;1004.161;;;;
2020/03/26 04:24:14;;;;;;;11.9;8.2;;;;;;;1.57;53.22656;1004.216;;;;
2020/03/26 04:26:39;;;;;;;10;7.5;;;;;;;1.6;53.29688;1004.19;;;;
2020/03/26 04:29:04;;;;;;;12.4;8;;;;;;;1.62;53.2334;1004.247;;;;
2020/03/26 04:31:29;;;;;;;11.4;7.8;;;;;;;1.58;53.42969;1004.194;;;;
2020/03/26 04:33:54;;;;;;;10.5;7.6;;;;;;;1.58;53.54199;1004.21;;;;
2020/03/26 04:36:19;;;;;;;10.6;7.7;;;;;;;1.53;53.68164;1004.198;;;;
2020/03/26 04:38:45;;;;;;;9.8;7.9;;;;;;;1.52;53.90527;1004.13;;;;
2020/03/26 04:41:55;;;;;;;10.3;8;;;;;;;1.47;54.04395;1004.125;;;;
2020/03/26 04:43:35;;;;;;;10.5;8.1;;;;;;;1.5;54.01367;1004.13;;;;
2020/03/26 04:46:00;;;;;;;11.8;8;;;;;;;1.48;54.21387;1004.12;;;;
2020/03/26 04:48:25;;;;;;;10.5;7.7;;;;;;;1.44;54.33203;1004.123;;;;
2020/03/26 04:50:50;;;;;;;11;8;;;;;;;1.45;54.27637;1004.104;;;;
2020/03/26 04:53:15;;;;;;;11.7;8.4;;;;;;;1.4;54.43945;1004.144;;;;
2020/03/26 04:55:40;;;;;;;12.1;8;;;;;;;1.48;54.29102;1004.14;;;;
2020/03/26 04:58:06;;;;;;;11.5;8.5;;;;;;;1.45;54.45605;1004.143;;;;
2020/03/26 05:00:31;;;;;;;10.9;8.1;;;;;;;1.42;54.53027;1004.119;;;;
2020/03/26 05:02:56;;;;;;;11.5;8.3;;;;;;;1.4;54.69629;1004.141;;;;
2020/03/26 05:05:21;;;;;;;10.9;8.1;;;;;;;1.41;54.74316;1004.195;;;;
2020/03/26 05:07:46;;;;;;;12.3;8.4;;;;;;;1.39;54.7627;1004.162;;;;
2020/03/26 05:10:11;;;;;;;12.3;8.5;;;;;;;1.42;54.75488;1004.213;;;;
2020/03/26 05:12:36;;;;;;;10.5;8;;;;;;;1.38;54.81738;1004.268;;;;
2020/03/26 05:15:02;;;;;;;12.4;8.9;;;;;;;1.34;55.19238;1004.179;;;;
2020/03/26 05:17:27;;;;;;;13.4;8.5;;;;;;;1.36;55.20605;1004.226;;;;
2020/03/26 05:19:52;;;;;;;12.7;8.5;;;;;;;1.36;55.27344;1004.219;;;;
2020/03/26 05:22:17;;;;;;;11.2;8.3;;;;;;;1.34;55.39453;1004.188;;;;
2020/03/26 05:24:42;;;;;;;12.6;8.7;;;;;;;1.29;55.62305;1004.221;;;;
2020/03/26 05:27:07;;;;;;;13.3;8.9;;;;;;;1.29;55.67969;1004.144;;;;
2020/03/26 05:29:32;;;;;;;12.1;8.3;;;;;;;1.29;55.79102;1004.158;;;;
2020/03/26 05:31:57;;;;;;;11.8;8.3;;;;;;;1.28;55.93652;1004.15;;;;
2020/03/26 05:34:22;;;;;;;13.9;8.5;;;;;;;1.28;56.06934;1004.09;;;;
2020/03/26 05:36:47;;;;;;;11.8;8.1;;;;;;;1.3;55.9834;1004.139;;;;
2020/03/26 05:39:12;;;;;;;11.8;8.3;;;;;;;1.28;56.14844;1004.146;;;;
2020/03/26 05:41:38;;;;;;;11.7;8.6;;;;;;;1.31;56.1416;1004.138;;;;
2020/03/26 05:44:03;;;;;;;11.6;8.6;;;;;;;1.33;56.13281;1004.154;;;;
2020/03/26 05:46:28;;;;;;;11.6;8.9;;;;;;;1.38;56.08398;1004.194;;;;
2020/03/26 05:48:53;;;;;;;12.9;9;;;;;;;1.38;56.0498;1004.214;;;;
2020/03/26 05:51:18;;;;;;;14.1;8.8;;;;;;;1.4;56.03027;1004.207;;;;
2020/03/26 05:53:43;;;;;;;12;9.1;;;;;;;1.4;56.01758;1004.245;;;;
2020/03/26 05:56:08;;;;;;;12.8;9;;;;;;;1.43;56.16992;1004.28;;;;
2020/03/26 05:58:33;;;;;;;11.6;8.7;;;;;;;1.45;55.96875;1004.267;;;;
2020/03/26 06:03:28;;;;;;;12.1;8.7;;;;;;;1.51;55.86523;1004.294;;;;
2020/03/26 06:05:49;;;;;;;12.9;8.8;;;;;;;1.53;55.67676;1004.332;;;;
2020/03/26 06:08:14;;;;;;;11.8;8.9;;;;;;;1.59;55.78516;1004.316;;;;
2020/03/26 06:10:39;;;;;;;13.4;8.7;;;;;;;1.64;55.625;1004.371;;;;
2020/03/26 06:13:04;;;;;;;12.3;9.1;;;;;;;1.74;55.43652;1004.319;;;;
2020/03/26 06:15:29;;;;;;;13.6;9;;;;;;;1.82;54.97559;1004.423;;;;
2020/03/26 06:17:54;;;;;;;11.2;8.5;;;;;;;1.83;55.05469;1004.443;;;;
2020/03/26 06:20:19;;;;;;;13.1;9.1;;;;;;;1.92;54.84277;1004.376;;;;
2020/03/26 06:22:44;;;;;;;13;9.3;;;;;;;1.97;54.75781;1004.32;;;;
2020/03/26 06:25:10;;;;;;;14.4;9.5;;;;;;;2.14;54.24121;1004.352;;;;
2020/03/26 06:27:35;;;;;;;12.8;9.5;;;;;;;2.34;53.96387;1004.417;;;;
2020/03/26 06:30:00;;;;;;;13;8.9;;;;;;;2.62;52.83105;1004.365;;;;
2020/03/26 06:32:25;;;;;;;12.4;9;;;;;;;2.6;52.91895;1004.449;;;;
2020/03/26 06:34:50;;;;;;;12.4;9.1;;;;;;;3;52.06836;1004.408;;;;
2020/03/26 06:37:15;;;;;;;11.2;8.4;;;;;;;3.96;49.60352;1004.486;;;;
2020/03/26 06:39:40;;;;;;;10.8;8.4;;;;;;;5.02;46.93555;1004.425;;;;
2020/03/26 06:42:05;;;;;;;10.3;8.4;;;;;;;5.93;44.83984;1004.476;;;;
2020/03/26 06:44:31;;;;;;;11.7;8.5;;;;;;;5.77;44.1084;1004.491;;;;
2020/03/26 06:46:56;;;;;;;11.3;8.4;;;;;;;6.37;43.00391;1004.442;;;;
2020/03/26 06:49:21;;;;;;;11.3;8.3;;;;;;;7.03;41.60449;1004.366;;;;
2020/03/26 06:51:46;;;;;;;11.8;8.3;;;;;;;7.01;41.31836;1004.42;;;;
2020/03/26 06:54:11;;;;;;;10.2;7.8;;;;;;;6.75;41.30469;1004.441;;;;
2020/03/26 06:56:36;;;;;;;11.8;8.1;;;;;;;6.63;41.74707;1004.438;;;;
2020/03/26 06:59:01;;;;;;;12.4;8.3;;;;;;;6.71;41.30078;1004.465;;;;
2020/03/26 07:01:26;;;;;;;10.6;8.1;;;;;;;6.24;41.98145;1004.436;;;;
2020/03/26 07:03:53;;;;;;;9.9;7.9;;;;;;;6.81;40.94727;1004.428;;;;
2020/03/26 07:06:17;;;;;;;11;7.8;;;;;;;7.32;40.17871;1004.398;;;;
2020/03/26 07:08:42;;;;;;;11;8.1;;;;;;;7.25;39.98926;1004.363;;;;
2020/03/26 07:11:07;;;;;;;11.4;7.5;;;;;;;6.57;40.98145;1004.624;;;;
2020/03/26 07:13:32;;;;;;;10.4;8;;;;;;;6.5;41.25781;1004.593;;;;
2020/03/26 07:15:57;;;;;;;9.9;7.7;;;;;;;6.43;41.36523;1004.548;;;;
2020/03/26 07:18:22;;;;;;;11;8.3;;;;;;;6.93;40.99316;1004.494;;;;
2020/03/26 07:21:03;;;;;;;11.2;8.2;;;;;;;6.49;41.46191;1004.526;;;;
2020/03/26 07:23:12;;;;;;;10.9;8.2;;;;;;;7.37;39.89844;1004.549;;;;
2020/03/26 07:25:37;;;;;;;10.8;7.8;;;;;;;7.28;39.81152;1004.403;;;;
2020/03/26 07:28:03;;;;;;;9.7;7.5;;;;;;;7.11;39.77148;1004.428;;;;
2020/03/26 07:30:28;;;;;;;10.8;8.2;;;;;;;7.16;40.24219;1004.373;;;;
2020/03/26 07:32:53;;;;;;;9.7;7.8;;;;;;;8.06;38.81348;1004.434;;;;
2020/03/26 07:35:18;;;;;;;10.1;8;;;;;;;7.49;39.5918;1004.471;;;;
2020/03/26 07:37:43;;;;;;;10;7.7;;;;;;;7.58;39.45117;1004.452;;;;
2020/03/26 07:40:08;;;;;;;10.2;8;;;;;;;7.11;40.31836;1004.424;;;;
2020/03/26 07:42:33;;;;;;;10.8;7.8;;;;;;;6.88;40.375;1004.365;;;;
2020/03/26 07:44:58;;;;;;;10.7;8;;;;;;;7.46;39.74805;1004.521;;;;
2020/03/26 07:47:23;;;;;;;10.2;7.8;;;;;;;7.87;38.86523;1004.437;;;;
2020/03/26 07:49:49;;;;;;;10.6;8.1;;;;;;;7.42;40.04004;1004.451;;;;
2020/03/26 07:52:14;;;;;;;9.2;7.1;;;;;;;6.61;41.12109;1004.568;;;;
2020/03/26 07:54:39;;;;;;;10;8.2;;;;;;;7.19;40.33691;1004.487;;;;
2020/03/26 07:57:04;;;;;;;10.4;7.9;;;;;;;7.29;40.20996;1004.51;;;;
2020/03/26 07:59:29;;;;;;;9.9;7.9;;;;;;;7.34;39.88477;1004.58;;;;
2020/03/26 08:01:54;;;;;;;11.3;7.7;;;;;;;8.12;38.05566;1004.532;;;;
2020/03/26 08:04:19;;;;;;;10.2;8;;;;;;;8.45;38.16504;1004.536;;;;
2020/03/26 08:06:45;;;;;;;10.4;7.4;;;;;;;8.69;37.62891;1004.428;;;;
2020/03/26 08:09:10;;;;;;;9.2;7.6;;;;;;;8.73;37.65332;1004.506;;;;
2020/03/26 08:11:35;;;;;;;9.6;7.7;;;;;;;8.97;37.27539;1004.448;;;;
2020/03/26 08:14:00;;;;;;;10.3;8;;;;;;;9.44;36.1748;1004.436;;;;
2020/03/26 08:16:25;;;;;;;10.1;7.9;;;;;;;9.35;36.16699;1004.571;;;;
2020/03/26 08:18:50;;;;;;;9.5;7.1;;;;;;;8.33;37.32324;1004.553;;;;
2020/03/26 08:21:15;;;;;;;9.8;7.7;;;;;;;8.23;38.17871;1004.569;;;;
2020/03/26 08:23:40;;;;;;;9.7;8;;;;;;;7.87;38.8291;1004.451;;;;
2020/03/26 08:26:06;;;;;;;9.4;7.5;;;;;;;7.46;39.32813;1004.436;;;;
2020/03/26 08:28:31;;;;;;;9;7.6;;;;;;;8.76;37.66797;1004.552;;;;
2020/03/26 08:30:56;;;;;;;9.2;7.5;;;;;;;9.21;36.29199;1004.579;;;;
2020/03/26 08:33:21;;;;;;;9.7;8.1;;;;;;;8.03;38.20801;1004.563;;;;
2020/03/26 08:35:46;;;;;;;9.2;7.8;;;;;;;8.71;37.60645;1004.659;;;;
2020/03/26 08:38:11;;;;;;;9.8;7.5;;;;;;;8.68;37.58105;1004.602;;;;
2020/03/26 08:40:36;;;;;;;9.6;7.7;;;;;;;9.49;36.42969;1004.57;;;;
2020/03/26 08:43:01;;;;;;;8.7;7;;;;;;;9.02;36.49219;1004.69;;;;
2020/03/26 08:45:26;;;;;;;9.6;7.3;;;;;;;8.88;36.97168;1004.734;;;;
2020/03/26 08:47:52;;;;;;;9.8;7.4;;;;;;;9.03;36.3457;1004.735;;;;
2020/03/26 08:50:17;;;;;;;8.3;7.1;;;;;;;9.25;35.74805;1004.864;;;;
2020/03/26 08:52:42;;;;;;;10.3;7.6;;;;;;;8.28;37.92285;1004.817;;;;
2020/03/26 08:55:07;;;;;;;8.5;7;;;;;;;9.42;36.11621;1004.758;;;;
2020/03/26 08:57:32;;;;;;;9;7.4;;;;;;;9.08;36.7373;1004.726;;;;
2020/03/26 08:59:57;;;;;;;9.9;7.6;;;;;;;9.44;36.1748;1004.809;;;;
2020/03/26 09:02:22;;;;;;;9.3;7.5;;;;;;;9.49;36.44141;1004.844;;;;
2020/03/26 09:04:47;;;;;;;9.6;7.6;;;;;;;10;35.20313;1004.838;;;;
2020/03/26 09:07:13;;;;;;;9.1;7.7;;;;;;;9.52;35.56543;1004.883;;;;
2020/03/26 09:09:38;;;;;;;9.5;7.5;;;;;;;10.2;34.68262;1004.865;;;;
2020/03/26 09:12:03;;;;;;;8.9;7.4;;;;;;;10.05;34.7959;1005.013;;;;
2020/03/26 09:14:28;;;;;;;10;7.6;;;;;;;10.12;34.8125;1004.872;;;;
2020/03/26 09:16:53;;;;;;;8.3;7.1;;;;;;;10.67;33.82617;1004.837;;;;
2020/03/26 09:19:18;;;;;;;9.3;7.1;;;;;;;9.83;34.69922;1004.971;;;;
2020/03/26 09:26:38;;;;;;;7.9;7;;;;;;;9.06;36.1543;1004.884;;;;
2020/03/26 09:28:59;;;;;;;8.9;7.2;;;;;;;9.3;36.18555;1004.857;;;;
2020/03/26 09:31:25;;;;;;;9.1;7.1;;;;;;;9.73;35.30762;1004.911;;;;
2020/03/26 09:33:49;;;;;;;9.2;7.9;;;;;;;10.05;35.09375;1004.765;;;;
2020/03/26 09:36:15;;;;;;;9;7.3;;;;;;;10.49;34.09961;1004.713;;;;
2020/03/26 09:38:40;;;;;;;8.7;7.3;;;;;;;10.61;33.29492;1004.761;;;;
2020/03/26 09:41:05;;;;;;;8.5;7.3;;;;;;;9.87;34.85059;1004.629;;;;
2020/03/26 09:43:30;;;;;;;8.8;7.3;;;;;;;10.33;34.36133;1004.71;;;;
2020/03/26 09:45:55;;;;;;;8.6;6.9;;;;;;;9.26;36.06836;1004.704;;;;
2020/03/26 09:48:20;;;;;;;8.9;7.3;;;;;;;9.35;36.15625;1004.637;;;;
2020/03/26 09:50:45;;;;;;;9.3;7.5;;;;;;;10.08;34.82129;1004.692;;;;
2020/03/26 09:53:10;;;;;;;8.1;6.9;;;;;;;10.88;33.37402;1004.744;;;;
2020/03/26 09:55:35;;;;;;;8.1;6.8;;;;;;;9.94;34.47852;1004.695;;;;
2020/03/26 09:58:01;;;;;;;7.9;6.8;;;;;;;9.48;35.1377;1004.707;;;;
2020/03/26 10:00:26;;;;;;;8.2;7.1;;;;;;;9.49;35.52734;1004.539;;;;
2020/03/26 10:02:52;;;;;;;9.3;7.3;;;;;;;9.76;35.44629;1004.631;;;;
2020/03/26 10:05:17;;;;;;;8.1;6.8;;;;;;;9.76;35.35547;1004.601;;;;
2020/03/26 10:07:42;;;;;;;8.4;7.2;;;;;;;10.01;34.30176;1004.632;;;;
2020/03/26 10:10:07;;;;;;;9.7;7.4;;;;;;;10.53;33.88574;1004.672;;;;
2020/03/26 10:12:32;;;;;;;8.5;7;;;;;;;10.93;33.67578;1004.672;;;;
2020/03/26 10:14:58;;;;;;;8.9;7.2;;;;;;;11.34;33.20215;1004.565;;;;
2020/03/26 10:17:23;;;;;;;8.5;7.3;;;;;;;11.94;32.11133;1004.51;;;;
2020/03/26 10:19:48;;;;;;;8.7;7.1;;;;;;;11.86;31.96777;1004.56;;;;
2020/03/26 10:22:13;;;;;;;9.9;7.3;;;;;;;11.56;32.47363;1004.586;;;;
2020/03/26 10:24:38;;;;;;;8;6.4;;;;;;;11.65;32.72168;1004.631;;;;
2020/03/26 10:27:03;;;;;;;8;6.8;;;;;;;10.7;33.41797;1004.774;;;;
2020/03/26 10:29:28;;;;;;;8.6;7;;;;;;;10.15;34.76953;1004.793;;;;
2020/03/26 10:31:53;;;;;;;9;6.9;;;;;;;10.75;33.52441;1004.653;;;;
2020/03/26 10:34:18;;;;;;;8.2;6.8;;;;;;;9.98;34.9502;1004.618;;;;
2020/03/26 10:36:43;;;;;;;8;6.7;;;;;;;10.36;34.84375;1004.635;;;;
2020/03/26 10:39:09;;;;;;;8;6.9;;;;;;;9.94;34.92383;1004.644;;;;
2020/03/26 10:41:34;;;;;;;9.3;7.1;;;;;;;10.03;35.19434;1004.573;;;;
2020/03/26 10:43:59;;;;;;;7.8;7;;;;;;;9.88;35.57227;1004.596;;;;
2020/03/26 10:46:24;;;;;;;8.9;7.4;;;;;;;10.24;35.2002;1004.51;;;;
2020/03/26 10:48:49;;;;;;;9.5;7.5;;;;;;;10.78;35.20996;1004.571;;;;
2020/03/26 10:51:14;;;;;;;10.5;7.6;;;;;;;10.4;36.07227;1004.533;;;;
2020/03/26 10:53:39;;;;;;;9.5;7.8;;;;;;;9.36;37.11523;1004.548;;;;
2020/03/26 10:56:04;;;;;;;10.1;7.9;;;;;;;9.2;38.01465;1004.494;;;;
2020/03/26 10:58:29;;;;;;;10.2;7.7;;;;;;;8.68;38.94922;1004.494;;;;
2020/03/26 11:00:55;;;;;;;10.3;7.9;;;;;;;9.24;38.80566;1004.491;;;;
2020/03/26 11:03:20;;;;;;;9.7;8;;;;;;;9.16;38.44531;1004.532;;;;
2020/03/26 11:05:45;;;;;;;9.1;8;;;;;;;8.71;39.13379;1004.607;;;;
2020/03/26 11:08:10;;;;;;;10.7;8.6;;;;;;;8.81;39.01855;1004.55;;;;
2020/03/26 11:10:36;;;;;;;9.5;8;;;;;;;8.61;39.31836;1004.535;;;;
2020/03/26 11:13:01;;;;;;;9.5;8;;;;;;;9.18;39.09766;1004.561;;;;
2020/03/26 11:15:26;;;;;;;9.5;8;;;;;;;9.11;38.87402;1004.599;;;;
2020/03/26 11:17:51;;;;;;;9.2;8.1;;;;;;;9.25;38.98926;1004.568;;;;
2020/03/26 11:20:16;;;;;;;9.5;8.5;;;;;;;9.23;38.54297;1004.536;;;;
2020/03/26 11:22:41;;;;;;;9.9;8.3;;;;;;;9.32;39.18945;1004.552;;;;
2020/03/26 11:25:06;;;;;;;10.5;8.2;;;;;;;9.39;38.2373;1004.476;;;;
2020/03/26 11:27:31;;;;;;;10.6;8.4;;;;;;;9.23;38.72461;1004.519;;;;
2020/03/26 11:29:57;;;;;;;10;8;;;;;;;8.98;38.72559;1004.682;;;;
2020/03/26 11:32:22;;;;;;;10.1;8.1;;;;;;;9.01;39.49219;1004.549;;;;
2020/03/26 11:34:47;;;;;;;10.4;8.5;;;;;;;9.27;38.85352;1004.561;;;;
2020/03/26 11:37:12;;;;;;;9.4;7.9;;;;;;;9.3;38.62891;1004.524;;;;
2020/03/26 11:39:37;;;;;;;10.2;8.6;;;;;;;9.2;38.88184;1004.535;;;;
2020/03/26 11:42:02;;;;;;;11.5;8.9;;;;;;;9.63;39.14941;1004.446;;;;
2020/03/26 11:44:27;;;;;;;10.3;8.5;;;;;;;9.83;38.75586;1004.5;;;;
2020/03/26 11:46:52;;;;;;;11;8.8;;;;;;;9.8;38.65039;1004.471;;;;
2020/03/26 11:49:17;;;;;;;10.1;8.3;;;;;;;9.17;39.02734;1004.431;;;;
2020/03/26 11:51:43;;;;;;;10.4;8.9;;;;;;;9.3;39.19824;1004.386;;;;
2020/03/26 11:54:08;;;;;;;9.4;8.2;;;;;;;9.33;39.05371;1004.281;;;;
2020/03/26 11:56:33;;;;;;;11;8.4;;;;;;;9.7;39.6123;1004.36;;;;
2020/03/26 11:59:16;;;;;;;11.1;8.9;;;;;;;9.77;38.87598;1004.326;;;;
2020/03/26 12:01:23;;;;;;;11.2;8.8;;;;;;;10.04;38.91211;1004.326;;;;
2020/03/26 12:03:48;;;;;;;11.9;9;;;;;;;10.21;38.27539;1004.366;;;;
2020/03/26 12:06:13;;;;;;;11.3;9;;;;;;;10.11;38.50684;1004.226;;;;
2020/03/26 12:08:38;;;;;;;11.2;9;;;;;;;10.28;37.9834;1004.329;;;;
2020/03/26 12:11:03;;;;;;;10.2;8.9;;;;;;;9.93;38.55957;1004.305;;;;
2020/03/26 12:13:28;;;;;;;10;8.8;;;;;;;10.29;38.08789;1004.314;;;;
2020/03/26 12:15:53;;;;;;;10.3;8.8;;;;;;;10.27;37.9375;1004.185;;;;
2020/03/26 12:18:19;;;;;;;9.5;8.1;;;;;;;10.33;37.57617;1004.31;;;;
2020/03/26 12:20:43;;;;;;;9.2;8;;;;;;;10.28;37.9502;1004.28;;;;
2020/03/26 12:23:09;;;;;;;11.1;8.8;;;;;;;10.27;37.39941;1004.284;;;;
2020/03/26 12:25:34;;;;;;;10.4;8.7;;;;;;;10.5;37.31641;1004.267;;;;
2020/03/26 12:27:59;;;;;;;10.2;8.7;;;;;;;10.48;36.99414;1004.165;;;;
2020/03/26 12:30:24;;;;;;;10.1;8.3;;;;;;;10.58;36.73926;1004.231;;;;
2020/03/26 12:32:49;;;;;;;9.8;8.5;;;;;;;10.19;37.61035;1004.228;;;;
2020/03/26 12:35:14;;;;;;;10.5;9;;;;;;;10.41;37.77832;1004.244;;;;
2020/03/26 12:37:40;;;;;;;9.7;8.4;;;;;;;10.72;37.06152;1004.223;;;;
2020/03/26 12:40:05;;;;;;;10;8.5;;;;;;;10.74;36.86816;1004.241;;;;
2020/03/26 12:42:30;;;;;;;10.3;8.7;;;;;;;10.44;37.55176;1004.196;;;;
2020/03/26 12:44:55;;;;;;;11.1;9;;;;;;;10.64;37.69531;1004.129;;;;
2020/03/26 12:47:20;;;;;;;10.2;8.4;;;;;;;10.59;37.5293;1004.187;;;;
2020/03/26 12:49:45;;;;;;;9;8.1;;;;;;;10.28;37.08008;1004.179;;;;
2020/03/26 12:52:11;;;;;;;10.3;8.6;;;;;;;10.19;37.33594;1004.212;;;;
2020/03/26 12:54:36;;;;;;;9.5;8.3;;;;;;;10.36;37.20215;1004.096;;;;
2020/03/26 12:57:01;;;;;;;9.2;7.8;;;;;;;10.48;37.36035;1004.016;;;;
2020/03/26 12:59:26;;;;;;;9.5;8.5;;;;;;;10.76;37.0752;1004.103;;;;
2020/03/26 13:01:51;;;;;;;9.8;8.5;;;;;;;10.65;36.49414;1004.111;;;;
2020/03/26 13:04:16;;;;;;;9.6;8.2;;;;;;;10.69;36.69141;1004.188;;;;
2020/03/26 13:06:41;;;;;;;9.2;8.2;;;;;;;10.25;37.33008;1004.144;;;;
2020/03/26 13:09:06;;;;;;;9;7.7;;;;;;;10.23;37.24707;1004.119;;;;
2020/03/26 13:11:31;;;;;;;9.9;8.3;;;;;;;10.4;37.85742;1004.145;;;;
2020/03/26 13:13:57;;;;;;;8.8;7.9;;;;;;;10.39;37.45605;1004.245;;;;
2020/03/26 13:16:22;;;;;;;9.6;8.2;;;;;;;10.67;37.11426;1004.145;;;;
2020/03/26 13:18:47;;;;;;;11.4;8.3;;;;;;;11.14;36.68359;1004.053;;;;
2020/03/26 13:21:12;;;;;;;8.9;7.9;;;;;;;11.44;36.2627;1004.01;;;;
2020/03/26 13:23:37;;;;;;;9.8;7.8;;;;;;;11.48;35.94336;1004.04;;;;
2020/03/26 13:26:03;;;;;;;11.2;8.4;;;;;;;11.29;36.1582;1003.954;;;;
2020/03/26 13:28:28;;;;;;;10.2;8.4;;;;;;;11;36.04102;1003.847;;;;
2020/03/26 13:30:53;;;;;;;10.3;8.3;;;;;;;10.91;36.75586;1003.818;;;;
2020/03/26 13:33:18;;;;;;;8.6;7.7;;;;;;;11.06;36.3916;1003.946;;;;
2020/03/26 13:35:43;;;;;;;10.4;8.3;;;;;;;11.09;36.1748;1003.885;;;;
2020/03/26 13:38:08;;;;;;;9.2;7.7;;;;;;;11.05;36.36719;1003.799;;;;
2020/03/26 13:40:33;;;;;;;9;8;;;;;;;11.09;36.76074;1003.746;;;;
2020/03/26 13:42:58;;;;;;;9.4;7.5;;;;;;;11.19;36.59668;1003.933;;;;
2020/03/26 13:45:24;;;;;;;8.5;7.1;;;;;;;11.14;36.2373;1003.778;;;;
2020/03/26 13:47:49;;;;;;;8.7;7.7;;;;;;;10.94;36.73633;1003.708;;;;
2020/03/26 13:50:14;;;;;;;10.2;7.9;;;;;;;10.93;36.86035;1003.822;;;;
2020/03/26 13:52:39;;;;;;;9.1;8;;;;;;;10.98;37.16406;1003.79;;;;
2020/03/26 13:55:05;;;;;;;9.7;7.6;;;;;;;11.12;36.95703;1003.792;;;;
2020/03/26 13:57:30;;;;;;;8.7;7.6;;;;;;;11.09;36.81738;1003.782;;;;
2020/03/26 13:59:55;;;;;;;10.4;7.8;;;;;;;11.14;37.18848;1003.751;;;;
2020/03/26 14:02:20;;;;;;;8.9;7.6;;;;;;;10.98;37.27734;1003.784;;;;
2020/03/26 14:04:45;;;;;;;9.8;7.9;;;;;;;10.95;37.56152;1003.767;;;;
2020/03/26 14:07:10;;;;;;;9.7;8;;;;;;;10.92;37.67285;1003.651;;;;
2020/03/26 14:09:35;;;;;;;8.8;7.9;;;;;;;10.87;37.26855;1003.67;;;;
2020/03/26 14:12:05;;;;;;;9.8;7.6;;;;;;;10.72;37.87305;1003.68;;;;
2020/03/26 14:14:29;;;;;;;9.5;7.8;;;;;;;10.91;38.09668;1003.581;;;;
2020/03/26 14:16:51;;;;;;;9.1;7.9;;;;;;;10.87;38.39063;1003.578;;;;
2020/03/26 14:19:16;;;;;;;9.8;8.1;;;;;;;11.02;38.39258;1003.572;;;;
2020/03/26 14:21:41;;;;;;;10.2;8.1;;;;;;;10.96;38.49023;1003.589;;;;
2020/03/26 14:24:06;;;;;;;10.1;7.9;;;;;;;10.98;38.59668;1003.545;;;;
2020/03/26 14:26:31;;;;;;;11.1;8.7;;;;;;;11.22;38.7207;1003.556;;;;
2020/03/26 14:28:56;;;;;;;10.7;8.5;;;;;;;11.26;38.16211;1003.487;;;;